Tuesday, November 13, 2018, 7:27 PM EST
Back to Local

KPSF, Pittsfield Municipal Airport

Location: Pittsfield, MA, United States Lat: 42.433
Local Time: 7:27 PM EST ( 0:27 GMT) Lon: -73.283
Time Zone: US/Eastern Elev: 1194 ft

Show me the last for .
Show Decoded

2018-11-13 18:54 METAR KPSF 132354Z AUTO 29019G26KT 10SM BKN010 OVC014 02/M01 A2992 RMK AO2 PK
                 WND 28026/2353 SLP135 60000 T00221006 10044 20017 53013 =
2018-11-13 18:19 METAR KPSF 132319Z AUTO 30014G23KT 10SM OVC010 02/M01 A2991 RMK AO2 CIG 008V014
                 T00221006 =
2018-11-13 17:54 METAR KPSF 132254Z AUTO 29014G19KT 10SM OVC007 02/M01 A2989 RMK AO2 CIG 006V010
                 SLP128 T00221006 =
2018-11-13 16:54 METAR KPSF 132154Z AUTO 29010G16KT 10SM OVC005 02/00 A2987 RMK AO2 UPB14E32 CIG
                 004V009 SLP121 P0000 T00170000 =
2018-11-13 16:46 METAR KPSF 132146Z AUTO 29009G20KT 10SM OVC005 02/00 A2988 RMK AO2 UPB14E32
                 P0000 T00170000 =
2018-11-13 16:28 METAR KPSF 132128Z AUTO 30011KT 9SM UP OVC004 02/00 A2987 RMK AO2 UPB14 P0000
                 T00170000 =
2018-11-13 15:54 METAR KPSF 132054Z AUTO 26007G16KT 10SM OVC006 02/00 A2988 RMK AO2 PRESRR SLP122
                 T00220000 53014 =
2018-11-13 14:54 METAR KPSF 131954Z AUTO 29013KT 10SM OVC007 02/01 A2984 RMK AO2 SLP108 T00220006
                 =
2018-11-13 13:54 METAR KPSF 131854Z AUTO 29013KT 10SM BKN007 BKN012 OVC025 04/02 A2982 RMK AO2
                 CIG 004V010 SLP101 T00390017 =
2018-11-13 13:50 METAR KPSF 131850Z AUTO 29008KT 10SM BKN007 BKN012 OVC025 04/02 A2981 RMK AO2
                 CIG 004V010 =
2018-11-13 13:09 METAR KPSF 131809Z AUTO 30007KT 10SM FEW007 BKN024 OVC034 04/02 A2983 RMK AO2
                 T00390022 =
2018-11-13 12:54 METAR KPSF 131754Z AUTO VRB04KT 5SM BR OVC009 04/02 A2984 RMK AO2 CIG 006V014
                 SLP105 P0001 60031 T00390017 10044 20028 55030 =
2018-11-13 12:31 METAR KPSF 131731Z AUTO 30007KT 9SM FEW006 BKN011 OVC018 04/02 A2984 RMK AO2
                 P0001 T00390017 =
2018-11-13 12:20 METAR KPSF 131720Z AUTO 29008KT 10SM SCT005 BKN009 OVC023 04/02 A2984 RMK AO2
                 P0001 T00390017 =
2018-11-13 11:54 METAR KPSF 131654Z AUTO 00000KT 5SM BR BKN004 BKN008 OVC028 04/02 A2983 RMK AO2
                 RAE45 SLP103 P0001 T00390022 =
2018-11-13 11:47 METAR KPSF 131647Z AUTO 05003KT 4SM BR BKN004 OVC028 04/02 A2984 RMK AO2 RAE45
                 P0001 T00390022 =
2018-11-13 11:36 METAR KPSF 131636Z AUTO VRB04KT 3SM -RA BR SCT004 OVC028 04/02 A2984 RMK AO2
                 P0001 T00440022 =
2018-11-13 11:28 METAR KPSF 131628Z AUTO 06003KT 2 1/2SM -RA BR SCT004 BKN030 OVC038 04/02 A2985
                 RMK AO2 PRESFR P0001 T00390022 =
2018-11-13 11:15 METAR KPSF 131615Z AUTO 00000KT 2 1/2SM -RA BR SCT007 BKN029 OVC039 03/02 A2988
                 RMK AO2 P0001 T00330022 =
2018-11-13 11:07 METAR KPSF 131607Z AUTO 00000KT 2 1/2SM -RA BR BKN007 OVC023 03/02 A2988 RMK AO2
                 P0000 T00330022 =
2018-11-13 10:54 METAR KPSF 131554Z AUTO 29005KT 3SM -RA BR BKN005 BKN015 OVC021 03/02 A2989 RMK
                 AO2 SLP126 P0003 T00330017 =
2018-11-13 10:40 METAR KPSF 131540Z AUTO 29004KT 3SM -RA BR BKN005 OVC016 03/02 A2990 RMK AO2
                 P0002 T00330017 =
2018-11-13 10:31 METAR KPSF 131531Z AUTO 30005KT 3SM -RA BR SCT005 OVC016 03/02 A2991 RMK AO2
                 P0002 T00330017 =
2018-11-13 09:54 METAR KPSF 131454Z AUTO 32003KT 3SM -RA BR BKN005 OVC013 03/02 A2993 RMK AO2
                 SLP138 P0007 60026 T00280017 58016 =
2018-11-13 09:51 METAR KPSF 131451Z AUTO 31003KT 2 1/2SM -RA BR BKN007 OVC013 03/02 A2993 RMK AO2
                 P0007 =
2018-11-13 09:25 METAR KPSF 131425Z AUTO 30008KT 8SM -RA SCT006 OVC011 03/01 A2994 RMK AO2 P0004
                 T00280011 =
2018-11-13 09:02 METAR KPSF 131402Z AUTO 25006KT 3SM -RA BR OVC003 03/02 A2995 RMK AO2 P0002
                 T00330022 =
2018-11-13 08:54 METAR KPSF 131354Z AUTO 26006KT 3SM -RA BR OVC005 03/02 A2996 RMK AO2 SLP147
                 P0012 T00330022 =
2018-11-13 08:49 METAR KPSF 131349Z AUTO 24003KT 2 1/2SM -RA BR BKN005 OVC013 03/02 A2995 RMK AO2
                 P0012 =
2018-11-13 08:23 METAR KPSF 131323Z AUTO 00000KT 1 3/4SM RA BR BKN005 OVC013 03/02 A2996 RMK AO2
                 P0006 T00330022 =
2018-11-13 07:57 METAR KPSF 131257Z AUTO 00000KT 2 1/2SM RA BR BKN004 OVC008 03/02 A2997 RMK AO2
                 P0000 T00280017 =
2018-11-13 07:54 METAR KPSF 131254Z AUTO 00000KT 3SM -RA BR BKN005 OVC008 03/02 A2998 RMK AO2
                 SLP154 P0007 T00280017 =
2018-11-13 07:44 METAR KPSF 131244Z AUTO 00000KT 3SM -RA BR BKN005 OVC009 03/02 A2998 RMK AO2
                 P0005 T00280017 =
2018-11-13 07:24 METAR KPSF 131224Z AUTO 00000KT 2 1/2SM -RA BR BKN004 BKN007 OVC011 03/02 A2999
                 RMK AO2 P0004 T00280017 =
2018-11-13 07:05 METAR KPSF 131205Z AUTO 01003KT 3SM RA BR BKN003 OVC009 03/01 A3000 RMK AO2
                 P0002 T00280011 =
2018-11-13 06:54 METAR KPSF 131154Z AUTO 00000KT 2 1/2SM RA BR BKN003 OVC010 03/01 A3000 RMK AO2
                 SLP164 P0012 60041 70041 T00280011 10033 20017 56041 =
2018-11-13 06:35 METAR KPSF 131135Z AUTO 00000KT 3SM -RA BR BKN003 OVC008 03/01 A3001 RMK AO2
                 P0007 T00280011 =
2018-11-13 05:54 METAR KPSF 131054Z AUTO 00000KT 2 1/2SM -RA BR OVC004 02/01 A3003 RMK AO2 SLP175
                 P0005 T00220011 =
2018-11-13 05:41 METAR KPSF 131041Z AUTO 00000KT 2 1/2SM -RA BR OVC004 02/01 A3004 RMK AO2 P0004
                 T00220011 =
2018-11-13 04:54 METAR KPSF 130954Z AUTO 00000KT 4SM -RA BR OVC004 02/01 A3008 RMK AO2 CIG
                 002V007 SLP189 P0002 T00220006 =
2018-11-13 04:33 METAR KPSF 130933Z AUTO 00000KT 3SM -RA BR OVC004 02/01 A3009 RMK AO2 CIG
                 002V007 P0002 T00220006 =
2018-11-13 04:24 METAR KPSF 130924Z AUTO 00000KT 3SM -RA BR OVC005 02/01 A3010 RMK AO2 CIG
                 002V007 P0001 T00220006 =
2018-11-13 04:15 METAR KPSF 130915Z AUTO 00000KT 2 1/2SM -RA BR OVC005 02/01 A3011 RMK AO2 CIG
                 002V009 P0001 T00220006 =
2018-11-13 03:54 METAR KPSF 130854Z AUTO 00000KT 3SM -RA BR OVC008 02/01 A3012 RMK AO2 CIG
                 003V009 SLP203 P0006 60022 T00220006 58024 =
2018-11-13 03:06 METAR KPSF 130806Z AUTO 05003KT 3SM -RA BR FEW003 OVC008 02/01 A3015 RMK AO2
                 P0002 T00170006 =
2018-11-13 02:54 METAR KPSF 130754Z AUTO 00000KT 2 1/2SM -RA BR FEW003 BKN008 OVC014 02/01 A3017
                 RMK AO2 CIG 006V012 SLP218 P0008 T00220006 =
2018-11-13 02:30 METAR KPSF 130730Z AUTO 00000KT 4SM -RA BR BKN009 OVC014 02/01 A3018 RMK AO2
                 P0004 T00220006 =
2018-11-13 02:12 METAR KPSF 130712Z AUTO 01003KT 4SM -RA BR OVC014 02/01 A3019 RMK AO2 P0003
                 T00220006 =
2018-11-13 01:54 METAR KPSF 130654Z AUTO 22005KT 3SM -RA BR BKN016 OVC023 03/01 A3020 RMK AO2
                 SLP227 P0008 T00280006 =
2018-11-13 01:10 METAR KPSF 130610Z AUTO 13004KT 7SM -RA OVC026 02/M01 A3021 RMK AO2 P0002
                 T00221006 =
2018-11-13 00:54 METAR KPSF 130554Z AUTO 18003KT 7SM -RA FEW025 OVC036 03/M01 A3022 RMK AO2
                 RAB04E15B40 SLP235 P0000 60000 T00331006 10044 20017 58020 =
2018-11-12 23:54 METAR KPSF 130454Z AUTO 00000KT 10SM FEW060 BKN075 OVC090 04/M03 A3027 RMK AO2
                 SLP250 T00441028 400721056 =
2018-11-12 22:54 METAR KPSF 130354Z AUTO 06003KT 10SM OVC090 03/M04 A3026 RMK AO2 SLP252
                 T00331039 =
2018-11-12 21:54 METAR KPSF 130254Z AUTO VRB03KT 10SM OVC095 03/M04 A3028 RMK AO2 SLP261
                 T00331039 50001 =
2018-11-12 20:54 METAR KPSF 130154Z AUTO 18004KT 10SM OVC100 04/M05 A3030 RMK AO2 SLP269
                 T00441050 =

Support USWX by starting your Amazon purchase here.